Time;durP1;ratioP1;P1;durP2;ratioP2;P2;SDS_P1;SDS_P2;PMS_P1;PMS_P2;Temp;Humidity;BMP_temperature;BMP_pressure;BME280_temperature;BME280_humidity;BME280_pressure;Samples;Min_cycle;Max_cycle;Signal;HPM_P1;HPM_P2
2022/08/11 00:01:04;;;;;;;3.43;2.20;;;22.50;99.90;;;;;;5022708;28;20205;-49
2022/08/11 00:03:33;;;;;;;6.63;2.30;;;22.50;99.90;;;;;;5021558;28;20256;-48
2022/08/11 00:06:12;;;;;;;3.07;1.87;;;22.50;99.90;;;;;;5022404;28;20215;-48
2022/08/11 00:08:42;;;;;;;3.70;2.10;;;22.50;99.90;;;;;;5021042;28;20312;-49
2022/08/11 00:11:11;;;;;;;7.53;2.00;;;22.50;99.90;;;;;;5019218;28;20209;-47
2022/08/11 00:13:44;;;;;;;2.10;1.87;;;22.50;99.90;;;;;;5021899;28;20247;-48
2022/08/11 00:16:21;;;;;;;3.67;2.03;;;22.50;99.90;;;;;;5020085;28;20200;-49
2022/08/11 00:18:53;;;;;;;2.40;2.20;;;22.50;99.90;;;;;;5021269;28;20558;-46
2022/08/11 00:21:23;;;;;;;4.80;2.00;;;22.50;99.90;;;;;;5021555;28;20335;-49
2022/08/11 00:24:10;;;;;;;3.57;2.20;;;22.40;99.90;;;;;;5019927;28;20215;-50
2022/08/11 00:26:37;;;;;;;6.77;2.60;;;22.30;99.90;;;;;;5016943;28;20806;-49
2022/08/11 00:29:10;;;;;;;3.47;1.93;;;22.20;99.90;;;;;;5018989;28;20302;-48
2022/08/11 00:31:42;;;;;;;3.77;2.20;;;22.30;99.90;;;;;;5019653;28;20236;-47
2022/08/11 00:34:11;;;;;;;2.77;2.23;;;22.20;99.90;;;;;;5020049;28;20212;-48
2022/08/11 00:36:50;;;;;;;2.97;2.40;;;21.90;99.90;;;;;;5020785;28;20296;-49
2022/08/11 00:39:20;;;;;;;2.97;2.53;;;22.00;99.90;;;;;;5020911;28;20259;-47
2022/08/11 00:42:23;;;;;;;4.13;2.67;;;21.90;99.90;;;;;;5019638;28;20657;-46
2022/08/11 00:45:11;;;;;;;3.80;2.87;;;21.70;99.90;;;;;;5020411;28;20297;-48
2022/08/11 00:47:59;;;;;;;4.53;2.67;;;21.80;99.90;;;;;;5018672;28;20247;-48
2022/08/11 00:50:35;;;;;;;4.63;2.90;;;21.80;99.90;;;;;;5020676;28;20616;-48
2022/08/11 00:53:04;;;;;;;3.57;2.70;;;21.90;99.90;;;;;;5017757;28;20706;-47
2022/08/11 00:56:00;;;;;;;6.70;2.73;;;21.90;99.90;;;;;;5020694;28;20271;-48
2022/08/11 00:59:04;;;;;;;3.33;2.43;;;21.70;99.90;;;;;;5020681;28;20244;-49
2022/08/11 01:02:18;;;;;;;4.60;2.37;;;21.70;99.90;;;;;;5020233;28;20643;-47
2022/08/11 01:05:00;;;;;;;4.13;2.50;;;21.70;99.90;;;;;;5019699;28;20244;-49
2022/08/11 01:07:57;;;;;;;4.73;2.70;;;21.60;99.90;;;;;;5020313;28;20430;-48
2022/08/11 01:11:03;;;;;;;4.63;2.67;;;21.60;99.90;;;;;;5020624;28;20200;-46
2022/08/11 01:14:00;;;;;;;4.20;2.70;;;21.50;99.90;;;;;;5019291;28;20861;-47
2022/08/11 01:16:30;;;;;;;6.63;2.90;;;21.40;99.90;;;;;;5019580;28;20619;-49
2022/08/11 01:19:34;;;;;;;3.93;2.70;;;21.40;99.90;;;;;;5017610;28;20243;-48
2022/08/11 01:22:36;;;;;;;3.60;2.70;;;21.40;99.90;;;;;;5019827;28;20213;-48
2022/08/11 01:25:38;;;;;;;2.37;2.07;;;21.40;99.90;;;;;;5020809;28;20213;-47
2022/08/11 01:29:00;;;;;;;4.07;2.40;;;21.40;99.90;;;;;;5021106;28;20292;-48
2022/08/11 01:31:33;;;;;;;6.10;2.70;;;21.30;99.90;;;;;;5020311;28;20672;-46
2022/08/11 01:34:06;;;;;;;3.63;2.60;;;21.30;99.90;;;;;;5019963;28;20197;-48
2022/08/11 01:36:54;;;;;;;3.60;2.67;;;21.40;99.90;;;;;;5019548;28;20260;-48
2022/08/11 01:39:52;;;;;;;5.53;2.60;;;21.30;99.90;;;;;;5018944;28;20204;-49
2022/08/11 01:46:09;;;;;;;3.27;2.87;;;21.10;99.90;;;;;;5014351;28;20689;-47
2022/08/11 01:48:56;;;;;;;5.77;2.87;;;21.10;99.90;;;;;;5019473;28;21120;-47
2022/08/11 01:51:44;;;;;;;4.23;2.97;;;21.10;99.90;;;;;;5019979;28;20238;-46
2022/08/11 01:54:27;;;;;;;4.17;2.77;;;21.10;99.90;;;;;;5019719;28;20331;-49
2022/08/11 01:57:06;;;;;;;3.10;2.80;;;21.20;99.90;;;;;;5019136;28;20303;-48
2022/08/11 01:59:47;;;;;;;6.10;3.43;;;21.00;99.90;;;;;;5023179;28;20660;-49
2022/08/11 02:02:46;;;;;;;2.93;2.60;;;21.00;99.90;;;;;;5017843;28;20208;-48
2022/08/11 02:05:22;;;;;;;4.13;2.73;;;21.00;99.90;;;;;;5023500;28;20204;-47
2022/08/11 02:07:55;;;;;;;5.23;2.83;;;20.90;99.90;;;;;;5024168;28;20274;-48
2022/08/11 02:13:44;;;;;;;4.77;3.07;;;20.90;99.90;;;;;;5022807;28;20646;-50
2022/08/11 02:16:52;;;;;;;6.50;3.27;;;20.80;99.90;;;;;;5023566;28;20572;-49
2022/08/11 02:25:41;;;;;;;4.20;3.07;;;20.60;99.90;;;;;;5023834;28;20220;-47
2022/08/11 02:28:28;;;;;;;4.73;2.87;;;20.70;99.90;;;;;;5023362;28;20215;-48
2022/08/11 02:35:12;;;;;;;3.70;3.03;;;20.70;99.90;;;;;;5001855;28;20245;-47
2022/08/11 02:38:01;;;;;;;3.70;2.80;;;20.70;99.90;;;;;;5001639;28;20220;-48
2022/08/11 02:40:48;;;;;;;3.87;3.07;;;20.70;99.90;;;;;;5018986;28;20213;-49
2022/08/11 02:43:35;;;;;;;5.83;2.57;;;20.60;99.90;;;;;;5022869;28;20644;-47
2022/08/11 02:46:25;;;;;;;4.13;3.13;;;20.60;99.90;;;;;;5022981;28;20676;-49
2022/08/11 02:52:21;;;;;;;3.50;3.03;;;20.60;99.90;;;;;;5019806;28;20228;-49
2022/08/11 02:55:11;;;;;;;4.53;3.00;;;20.60;99.90;;;;;;5022448;28;20228;-47
2022/08/11 02:58:10;;;;;;;5.67;2.90;;;20.50;99.90;;;;;;5022257;28;20217;-48
2022/08/11 03:01:10;;;;;;;5.57;2.93;;;20.40;99.90;;;;;;5023073;28;20700;-47
2022/08/11 03:03:50;;;;;;;5.03;3.70;;;20.40;99.90;;;;;;5021839;28;20208;-48
2022/08/11 03:06:27;;;;;;;5.53;3.40;;;20.40;99.90;;;;;;5020309;28;20262;-48
2022/08/11 03:09:12;;;;;;;4.23;3.10;;;20.40;99.90;;;;;;5021718;28;20220;-48
2022/08/11 03:18:05;;;;;;;4.27;3.53;;;20.30;99.90;;;;;;5021564;28;20296;-46
2022/08/11 03:20:47;;;;;;;4.73;3.40;;;20.40;99.90;;;;;;5021729;28;20208;-47
2022/08/11 03:23:32;;;;;;;6.93;3.13;;;20.30;99.90;;;;;;5021975;28;20255;-49
2022/08/11 03:26:27;;;;;;;5.73;3.10;;;20.30;99.90;;;;;;5021747;28;20308;-47
2022/08/11 03:29:03;;;;;;;7.67;3.57;;;20.30;99.90;;;;;;5021678;28;20572;-48
2022/08/11 03:32:28;;;;;;;3.47;3.17;;;20.20;99.90;;;;;;5017233;28;20262;-49
2022/08/11 03:35:00;;;;;;;3.40;3.10;;;20.10;99.90;;;;;;5021135;28;20201;-49
2022/08/11 03:37:54;;;;;;;4.40;3.17;;;20.20;99.90;;;;;;5020929;28;20206;-46
2022/08/11 03:44:27;;;;;;;4.33;3.37;;;20.20;99.90;;;;;;5022287;28;20634;-48
2022/08/11 03:47:15;;;;;;;5.40;3.77;;;20.10;99.90;;;;;;5021750;28;20197;-47
2022/08/11 03:49:51;;;;;;;4.73;3.40;;;20.10;99.90;;;;;;5017685;28;20201;-48
2022/08/11 03:52:36;;;;;;;6.83;3.23;;;20.10;99.90;;;;;;5020613;28;20247;-47
2022/08/11 03:55:29;;;;;;;4.23;3.40;;;20.10;99.90;;;;;;5020040;28;20244;-47
2022/08/11 03:58:11;;;;;;;4.43;3.63;;;20.00;99.90;;;;;;5021108;28;20586;-47
2022/08/11 04:01:04;;;;;;;4.13;3.70;;;20.00;99.90;;;;;;5021568;28;20213;-47
2022/08/11 04:03:58;;;;;;;5.27;3.30;;;19.90;99.90;;;;;;5020367;28;20209;-47
2022/08/11 04:06:52;;;;;;;4.47;3.47;;;19.90;99.90;;;;;;5021573;28;20275;-48
2022/08/11 04:09:45;;;;;;;6.13;3.47;;;19.90;99.90;;;;;;5019735;28;20754;-48
2022/08/11 04:12:24;;;;;;;4.27;3.50;;;20.00;99.90;;;;;;5021713;28;20700;-47
2022/08/11 04:16:00;;;;;;;6.13;4.30;;;20.00;99.90;;;;;;5020875;28;20210;-46
2022/08/11 04:19:09;;;;;;;8.37;3.40;;;19.90;99.90;;;;;;5022036;28;20560;-46
2022/08/11 04:21:45;;;;;;;5.53;3.43;;;19.90;99.90;;;;;;5020668;28;20666;-48
2022/08/11 04:24:36;;;;;;;5.10;4.10;;;19.90;99.90;;;;;;5020253;28;20291;-47
2022/08/11 04:27:17;;;;;;;5.73;4.30;;;19.80;99.90;;;;;;5020227;28;20669;-47
2022/08/11 04:30:16;;;;;;;4.33;3.60;;;19.60;99.90;;;;;;5027689;28;20559;-47
2022/08/11 04:33:14;;;;;;;4.20;3.70;;;19.60;99.90;;;;;;5020514;28;20560;-49
2022/08/11 04:35:48;;;;;;;5.77;3.67;;;19.70;99.90;;;;;;5021398;28;20201;-47
2022/08/11 04:38:41;;;;;;;5.47;3.57;;;19.70;99.90;;;;;;5021557;28;20212;-49
2022/08/11 04:41:31;;;;;;;5.17;4.07;;;19.70;99.90;;;;;;5015338;28;20209;-47
2022/08/11 04:44:49;;;;;;;4.20;3.63;;;19.60;99.90;;;;;;5020447;28;20205;-47
2022/08/11 05:03:13;;;;;;;8.00;4.40;;;19.50;99.90;;;;;;4997450;28;20349;-49
2022/08/11 05:06:07;;;;;;;5.23;4.17;;;19.50;99.90;;;;;;4998127;28;20218;-48
2022/08/11 05:09:06;;;;;;;5.03;4.07;;;19.50;99.90;;;;;;4999172;28;20594;-47
2022/08/11 05:11:52;;;;;;;5.70;3.90;;;19.60;99.90;;;;;;4970970;28;20260;-47
2022/08/11 05:27:09;;;;;;;5.77;4.70;;;19.60;99.90;;;;;;5000648;28;20208;-49
2022/08/11 05:35:40;;;;;;;6.87;4.93;;;19.70;99.90;;;;;;5018181;28;20248;-48
2022/08/11 05:58:34;;;;;;;5.83;3.67;;;20.00;99.90;;;;;;5018534;28;20307;-49
2022/08/11 06:01:09;;;;;;;7.80;3.93;;;20.20;99.90;;;;;;5011557;28;20227;-46
2022/08/11 06:06:27;;;;;;;7.13;3.80;;;20.40;99.90;;;;;;5019461;28;20281;-47
2022/08/11 06:08:56;;;;;;;6.53;3.43;;;20.40;99.90;;;;;;5019651;28;20267;-47
2022/08/11 06:11:25;;;;;;;5.13;4.10;;;20.40;99.90;;;;;;5018761;28;20206;-49
2022/08/11 06:14:11;;;;;;;5.07;3.63;;;20.40;99.90;;;;;;5019300;28;20288;-49
2022/08/11 06:16:41;;;;;;;5.33;3.73;;;20.50;99.90;;;;;;5019998;28;20214;-47
2022/08/11 06:19:09;;;;;;;3.90;3.23;;;20.60;99.90;;;;;;5018569;28;20204;-49
2022/08/11 06:21:37;;;;;;;6.40;3.33;;;20.70;99.90;;;;;;5019880;28;20208;-49
2022/08/11 06:24:11;;;;;;;4.80;3.20;;;20.80;99.90;;;;;;5018978;28;20217;-49
2022/08/11 06:26:40;;;;;;;4.23;3.27;;;20.90;99.90;;;;;;5018993;28;20216;-48
2022/08/11 06:29:27;;;;;;;4.70;3.60;;;20.90;99.90;;;;;;5018746;28;20328;-48
2022/08/11 06:32:15;;;;;;;4.97;4.07;;;20.90;99.90;;;;;;5018083;28;20198;-51
2022/08/11 06:35:10;;;;;;;5.83;3.07;;;21.00;99.90;;;;;;5015122;28;20243;-48
2022/08/11 06:37:54;;;;;;;4.70;3.23;;;21.20;99.90;;;;;;5019830;28;20208;-49
2022/08/11 06:40:33;;;;;;;5.23;3.57;;;21.30;99.90;;;;;;5018518;28;20209;-50
2022/08/11 06:43:21;;;;;;;4.33;3.20;;;21.80;99.90;;;;;;5018858;28;20204;-48
2022/08/11 06:46:01;;;;;;;4.50;3.33;;;22.30;99.90;;;;;;5019744;28;20283;-48
2022/08/11 06:48:32;;;;;;;5.13;3.33;;;22.50;99.90;;;;;;5022287;28;20312;-48
2022/08/11 06:51:12;;;;;;;5.03;3.50;;;23.00;99.90;;;;;;5023480;28;20231;-50
2022/08/11 06:53:45;;;;;;;4.40;2.77;;;23.70;99.90;;;;;;5023723;28;20717;-50
2022/08/11 07:02:36;;;;;;;7.23;3.13;;;25.60;99.90;;;;;;5020171;28;20248;-49
2022/08/11 07:05:19;;;;;;;5.47;2.73;;;25.50;99.90;;;;;;5021744;28;20319;-47
2022/08/11 07:16:52;;;;;;;5.30;3.30;;;27.00;99.90;;;;;;5021859;28;20353;-50
2022/08/11 07:31:06;;;;;;;6.35;2.50;;;28.20;99.90;;;;;;5022087;28;20228;-51
2022/08/11 07:33:49;;;;;;;3.20;2.85;;;28.30;99.90;;;;;;5021234;28;20258;-50
2022/08/11 07:36:44;;;;;;;5.63;2.80;;;28.10;99.90;;;;;;5019582;28;20201;-50
2022/08/11 07:39:20;;;;;;;3.10;2.80;;;28.20;99.90;;;;;;5021571;28;20213;-48
2022/08/11 07:41:50;;;;;;;5.32;3.20;;;28.30;99.90;;;;;;5018926;28;20209;-49
2022/08/11 07:44:17;;;;;;;7.07;3.15;;;27.70;99.90;;;;;;5020711;28;20244;-49
2022/08/11 07:52:31;;;;;;;5.95;3.03;;;28.20;99.90;;;;;;5021529;28;20653;-50
2022/08/11 07:55:13;;;;;;;5.88;3.10;;;28.10;99.90;;;;;;5020344;28;20283;-48
2022/08/11 08:17:56;;;;;;;4.25;2.80;;;29.30;99.90;;;;;;5019065;28;20200;-48
2022/08/11 08:20:50;;;;;;;6.37;3.07;;;28.80;99.90;;;;;;5020498;28;20235;-50
2022/08/11 08:23:31;;;;;;;3.22;2.65;;;29.20;99.90;;;;;;5020820;28;20204;-50
2022/08/11 08:26:03;;;;;;;5.22;2.47;;;28.70;99.90;;;;;;5020354;28;20205;-49
2022/08/11 08:28:31;;;;;;;4.57;2.83;;;28.50;99.90;;;;;;5020611;28;20216;-50
2022/08/11 08:30:59;;;;;;;3.33;2.38;;;29.90;99.90;;;;;;5015110;28;20559;-50
2022/08/11 08:33:29;;;;;;;5.15;2.58;;;30.40;99.90;;;;;;5020326;28;20593;-51
2022/08/11 08:36:17;;;;;;;8.95;2.63;;;31.70;99.90;;;;;;5020159;28;20290;-51
2022/08/11 08:38:52;;;;;;;3.20;2.40;;;32.40;99.90;;;;;;5019338;28;20240;-51
2022/08/11 08:41:27;;;;;;;3.92;2.30;;;32.50;99.90;;;;;;5021084;28;20678;-50
2022/08/11 08:43:57;;;;;;;3.03;2.60;;;32.50;99.90;;;;;;5019874;28;20213;-49
2022/08/11 08:46:47;;;;;;;2.92;2.50;;;31.30;99.90;;;;;;5020070;28;20213;-50
2022/08/11 08:49:17;;;;;;;6.43;2.38;;;31.70;99.90;;;;;;5020733;28;20216;-49
2022/08/11 08:51:51;;;;;;;4.18;2.50;;;31.20;99.90;;;;;;5018246;28;20205;-49
2022/08/11 08:54:33;;;;;;;3.67;2.40;;;32.20;99.90;;;;;;5020393;28;20708;-52
2022/08/11 08:57:04;;;;;;;2.63;2.13;;;32.30;99.90;;;;;;5020739;28;20233;-50
2022/08/11 08:59:36;;;;;;;4.72;2.35;;;32.60;99.90;;;;;;5019630;28;20303;-49
2022/08/11 09:02:18;;;;;;;6.05;3.33;;;32.10;99.90;;;;;;5017713;28;20291;-51
2022/08/11 09:05:05;;;;;;;4.57;2.40;;;32.30;99.90;;;;;;5019763;28;20258;-51
2022/08/11 09:07:32;;;;;;;3.65;2.58;;;32.20;99.90;;;;;;5020944;28;20250;-52
2022/08/11 09:10:10;;;;;;;6.60;2.75;;;32.80;99.90;;;;;;5019128;28;20216;-51
2022/08/11 09:12:40;;;;;;;3.42;2.25;;;32.30;99.90;;;;;;5019289;28;20604;-51
2022/08/11 09:15:10;;;;;;;5.13;2.90;;;32.70;99.90;;;;;;5019716;28;20205;-50
2022/08/11 09:17:45;;;;;;;6.40;2.85;;;32.60;99.90;;;;;;5017034;28;20202;-51
2022/08/11 09:20:17;;;;;;;5.00;2.72;;;32.50;99.90;;;;;;5019884;28;20330;-52
2022/08/11 09:28:44;;;;;;;7.13;2.60;;;32.10;99.90;;;;;;5020147;28;20248;-52
2022/08/11 09:31:13;;;;;;;4.63;2.67;;;32.00;99.90;;;;;;5020790;28;20252;-51
2022/08/11 09:33:42;;;;;;;3.53;2.40;;;32.10;99.90;;;;;;5019628;28;20211;-51
2022/08/11 09:41:45;;;;;;;4.15;2.33;;;31.20;99.90;;;;;;5016414;28;20205;-50
2022/08/11 09:44:48;;;;;;;4.05;2.65;;;31.10;99.90;;;;;;5019693;28;20619;-52
2022/08/11 09:47:43;;;;;;;5.03;3.20;;;31.00;99.90;;;;;;5018291;28;20208;-49
2022/08/11 09:50:13;;;;;;;4.45;2.55;;;30.40;99.90;;;;;;5017492;28;20315;-50
2022/08/11 09:52:41;;;;;;;3.17;2.58;;;30.90;99.90;;;;;;5018442;28;20293;-51
2022/08/11 09:55:28;;;;;;;3.78;2.17;;;31.20;99.90;;;;;;5019008;28;20331;-49
2022/08/11 09:58:15;;;;;;;2.50;2.15;;;31.60;99.90;;;;;;5020746;28;20200;-49
2022/08/11 10:01:02;;;;;;;4.65;2.55;;;31.30;99.90;;;;;;5018113;28;20295;-50
2022/08/11 10:03:31;;;;;;;4.43;3.17;;;31.10;99.90;;;;;;5017791;28;20604;-49
2022/08/11 10:08:59;;;;;;;3.42;2.75;;;30.80;99.90;;;;;;5019723;28;20578;-51
2022/08/11 10:11:27;;;;;;;2.90;2.28;;;31.00;99.90;;;;;;5018629;28;20205;-50
2022/08/11 10:17:05;;;;;;;4.22;2.78;;;30.20;99.90;;;;;;5017642;28;20200;-51
2022/08/11 10:19:36;;;;;;;4.22;2.63;;;30.50;99.90;;;;;;5017575;28;20288;-49
2022/08/11 10:27:49;;;;;;;4.35;2.53;;;30.50;99.90;;;;;;5023449;28;20683;-49
2022/08/11 10:36:27;;;;;;;7.82;2.35;;;29.70;99.90;;;;;;5023904;28;20764;-48
2022/08/11 10:38:56;;;;;;;4.72;2.38;;;29.60;99.90;;;;;;5023488;28;20643;-50
2022/08/11 10:44:51;;;;;;;8.82;2.80;;;29.60;99.90;;;;;;5022272;28;20220;-50
2022/08/11 10:47:34;;;;;;;2.92;2.35;;;29.20;99.90;;;;;;5022343;28;20236;-51
2022/08/11 10:58:48;;;;;;;6.68;2.55;;;29.70;99.90;;;;;;5022654;28;20292;-50
2022/08/11 11:01:23;;;;;;;4.75;2.35;;;29.80;99.90;;;;;;5017059;28;20209;-51
2022/08/11 11:03:57;;;;;;;3.78;2.25;;;30.00;99.90;;;;;;5022439;28;20201;-50
2022/08/11 11:06:52;;;;;;;3.45;2.63;;;30.30;99.90;;;;;;5023431;28;20730;-50
2022/08/11 11:09:28;;;;;;;5.00;2.40;;;30.40;99.90;;;;;;5023376;28;20669;-48
2022/08/11 11:18:06;;;;;;;6.78;2.00;;;31.60;99.90;;;;;;5021612;28;20228;-51
2022/08/11 11:20:40;;;;;;;2.80;2.45;;;31.30;99.90;;;;;;5017275;28;20609;-51
2022/08/11 11:23:35;;;;;;;3.40;2.40;;;31.60;99.90;;;;;;5022301;28;20213;-50
2022/08/11 11:26:20;;;;;;;3.83;2.50;;;31.90;99.90;;;;;;5022681;28;20672;-50
2022/08/11 11:29:02;;;;;;;6.43;3.42;;;31.30;99.90;;;;;;5023269;28;20212;-51
2022/08/11 11:31:55;;;;;;;2.60;2.33;;;31.90;99.90;;;;;;5021062;28;20251;-51
2022/08/11 11:34:46;;;;;;;3.78;2.38;;;31.90;99.90;;;;;;5021224;28;20641;-51
2022/08/11 11:37:21;;;;;;;4.00;2.40;;;32.30;99.90;;;;;;5021980;28;20790;-50
2022/08/11 11:39:49;;;;;;;3.88;2.72;;;32.80;99.90;;;;;;5022901;28;20267;-50
2022/08/11 11:42:17;;;;;;;5.25;3.00;;;34.10;99.90;;;;;;5016550;28;20205;-49
2022/08/11 11:44:46;;;;;;;4.07;2.50;;;34.40;99.90;;;;;;5020454;28;20216;-51
2022/08/11 11:47:16;;;;;;;6.60;2.50;;;34.70;99.90;;;;;;5021625;28;20227;-48
2022/08/11 11:49:45;;;;;;;5.30;2.25;;;34.80;99.90;;;;;;5020373;28;20684;-49
2022/08/11 11:52:18;;;;;;;5.70;2.58;;;34.70;99.90;;;;;;5022454;28;20204;-51
2022/08/11 11:54:50;;;;;;;5.65;2.20;;;33.30;99.90;;;;;;5021768;28;20260;-51
2022/08/11 12:03:01;;;;;;;2.90;2.10;;;34.30;99.90;;;;;;5022099;28;20291;-50
2022/08/11 12:05:32;;;;;;;5.35;2.15;;;33.80;99.90;;;;;;5021571;28;20645;-53
2022/08/11 12:08:15;;;;;;;3.58;2.08;;;32.90;99.90;;;;;;5036681;28;20209;-51
2022/08/11 12:10:45;;;;;;;6.10;2.00;;;34.10;99.90;;;;;;5017991;28;20225;-51
2022/08/11 12:16:02;;;;;;;2.53;1.80;;;34.70;99.90;;;;;;5022071;28;20293;-51
2022/08/11 12:18:53;;;;;;;3.17;2.40;;;34.20;99.90;;;;;;5020189;28;20292;-52
2022/08/11 12:21:21;;;;;;;6.05;2.40;;;33.80;99.90;;;;;;5021575;28;20205;-50
2022/08/11 12:29:44;;;;;;;6.30;2.08;;;33.80;99.90;;;;;;5020635;28;20645;-49
2022/08/11 12:32:14;;;;;;;3.60;2.30;;;35.10;99.90;;;;;;5020796;28;20262;-51
2022/08/11 12:34:41;;;;;;;2.30;2.08;;;35.80;99.90;;;;;;5020801;28;20658;-50
2022/08/11 12:37:12;;;;;;;2.28;2.10;;;35.50;99.90;;;;;;5021808;28;20258;-51
2022/08/11 12:45:57;;;;;;;4.53;2.40;;;33.90;99.90;;;;;;5021162;28;20569;-53
2022/08/11 12:54:57;;;;;;;3.70;2.67;;;33.60;99.90;;;;;;5020907;28;20782;-50
2022/08/11 13:06:02;;;;;;;5.45;2.40;;;34.90;99.90;;;;;;5020146;28;20232;-51
2022/08/11 13:08:32;;;;;;;3.53;2.20;;;34.70;99.90;;;;;;5021400;28;20300;-50
2022/08/11 13:13:48;;;;;;;3.55;2.10;;;34.20;99.90;;;;;;5020021;28;20200;-53
2022/08/11 13:16:30;;;;;;;4.78;2.17;;;35.40;99.90;;;;;;5019048;28;20660;-50
2022/08/11 13:18:59;;;;;;;2.45;2.25;;;36.40;99.90;;;;;;5019885;28;20201;-53
2022/08/11 13:21:27;;;;;;;4.38;2.90;;;35.90;99.90;;;;;;5018515;28;20719;-51
2022/08/11 13:23:55;;;;;;;4.03;2.10;;;35.30;99.90;;;;;;5020017;28;20709;-51
2022/08/11 13:26:33;;;;;;;7.57;2.30;;;35.40;99.90;;;;;;5020551;28;20209;-51
2022/08/11 13:29:22;;;;;;;3.08;2.30;;;36.00;99.90;;;;;;5020433;28;20543;-49
2022/08/11 13:31:51;;;;;;;5.35;2.20;;;36.40;99.90;;;;;;5020183;28;20223;-51
2022/08/11 13:34:20;;;;;;;3.78;2.15;;;36.60;99.90;;;;;;5018997;28;20289;-49
2022/08/11 13:36:52;;;;;;;3.72;2.38;;;35.00;99.90;;;;;;5019432;28;20202;-52
2022/08/11 13:39:26;;;;;;;6.38;2.95;;;33.70;99.90;;;;;;5019550;28;20217;-50
2022/08/11 13:41:58;;;;;;;4.97;2.72;;;33.70;99.90;;;;;;5019984;28;20209;-50
2022/08/11 13:44:27;;;;;;;2.95;2.13;;;34.40;99.90;;;;;;5019022;28;20458;-53
2022/08/11 13:47:02;;;;;;;4.45;2.00;;;34.20;99.90;;;;;;5018531;28;20209;-51
2022/08/11 13:49:33;;;;;;;2.72;2.50;;;34.40;99.90;;;;;;5018985;28;20291;-52
2022/08/11 13:52:01;;;;;;;3.35;2.30;;;34.70;99.90;;;;;;5020020;28;20252;-51
2022/08/11 13:54:30;;;;;;;3.60;1.90;;;34.50;99.90;;;;;;5020752;28;20721;-51
2022/08/11 13:57:03;;;;;;;5.28;2.22;;;35.20;99.90;;;;;;5023335;28;20347;-51
2022/08/11 13:59:40;;;;;;;3.50;2.00;;;34.80;99.90;;;;;;5024598;28;20201;-50
2022/08/11 14:02:26;;;;;;;2.65;2.03;;;35.20;99.90;;;;;;5023388;28;20209;-51
2022/08/11 14:05:01;;;;;;;3.58;2.00;;;35.10;99.90;;;;;;5023757;28;20282;-49
2022/08/11 14:07:38;;;;;;;2.78;2.30;;;34.00;99.90;;;;;;5022548;28;20236;-48
2022/08/11 14:10:07;;;;;;;5.63;2.10;;;33.90;99.90;;;;;;5024096;28;20200;-50
2022/08/11 14:15:29;;;;;;;5.55;2.00;;;34.20;99.90;;;;;;5023283;28;20267;-50
2022/08/11 14:18:15;;;;;;;3.50;2.28;;;33.90;99.90;;;;;;5022592;28;20205;-50
2022/08/11 14:23:37;;;;;;;4.55;1.85;;;34.20;99.90;;;;;;5023808;28;20204;-51
2022/08/11 14:26:25;;;;;;;4.15;2.13;;;34.20;99.90;;;;;;5022025;28;20209;-50
2022/08/11 14:28:58;;;;;;;2.25;1.92;;;34.00;99.90;;;;;;5023083;28;20204;-49
2022/08/11 14:31:28;;;;;;;5.82;2.33;;;33.60;99.90;;;;;;5022668;28;20574;-50
2022/08/11 14:34:01;;;;;;;2.85;1.80;;;33.10;99.90;;;;;;5023197;28;20233;-53
2022/08/11 14:36:34;;;;;;;5.13;2.08;;;33.20;99.90;;;;;;5022693;28;20267;-53
2022/08/11 14:39:15;;;;;;;2.53;2.00;;;33.00;99.90;;;;;;5022399;28;20205;-51
2022/08/11 14:47:03;;;;;;;4.78;2.20;;;33.20;99.90;;;;;;5022590;28;20692;-49
2022/08/11 14:47:53;;;;;;;3.53;2.10;;;32.80;99.90;;;;;;5022228;28;20571;-53
2022/08/11 14:50:23;;;;;;;2.10;1.85;;;33.20;99.90;;;;;;5022566;28;20205;-52
2022/08/11 14:53:07;;;;;;;3.75;2.25;;;33.40;99.90;;;;;;5023303;28;20300;-51
2022/08/11 14:58:30;;;;;;;4.10;1.80;;;33.70;99.90;;;;;;5022510;28;21288;-51
2022/08/11 15:00:59;;;;;;;3.20;1.70;;;33.70;99.90;;;;;;5022781;28;20259;-50
2022/08/11 15:03:29;;;;;;;2.97;1.60;;;33.30;99.90;;;;;;5022108;28;20843;-52
2022/08/11 15:06:00;;;;;;;2.72;2.30;;;32.70;99.90;;;;;;5021918;28;20639;-52
2022/08/11 15:14:05;;;;;;;3.40;2.13;;;32.80;99.90;;;;;;5022497;28;20200;-50
2022/08/11 15:19:22;;;;;;;5.25;2.80;;;33.00;99.90;;;;;;5022991;28;20244;-51
2022/08/11 15:24:36;;;;;;;4.35;3.25;;;32.10;99.90;;;;;;5021629;28;20213;-50
2022/08/11 15:38:51;;;;;;;3.63;1.98;;;31.80;99.90;;;;;;5021375;28;20211;-50
2022/08/11 15:48:02;;;;;;;5.00;1.75;;;31.50;99.90;;;;;;5021024;28;20220;-51
2022/08/11 15:50:37;;;;;;;2.75;1.98;;;31.50;99.90;;;;;;5018072;28;20208;-49
2022/08/11 15:53:15;;;;;;;4.57;2.25;;;31.60;99.90;;;;;;5021473;28;20236;-51
2022/08/11 15:55:43;;;;;;;3.90;2.35;;;31.40;99.90;;;;;;5020445;28;20280;-50
2022/08/11 16:06:48;;;;;;;2.25;1.77;;;31.20;99.90;;;;;;5020694;28;20278;-50
2022/08/11 16:09:21;;;;;;;3.10;1.80;;;31.30;99.90;;;;;;5022306;28;20208;-49
2022/08/11 16:11:49;;;;;;;4.10;1.90;;;31.10;99.90;;;;;;5020753;28;20270;-50
2022/08/11 16:17:08;;;;;;;2.78;1.65;;;31.20;99.90;;;;;;5021076;28;20224;-51
2022/08/11 16:19:39;;;;;;;3.13;1.63;;;31.20;99.90;;;;;;5020966;28;20325;-50
2022/08/11 16:22:10;;;;;;;4.30;1.83;;;31.20;99.90;;;;;;5021007;28;20551;-51
2022/08/11 16:24:44;;;;;;;3.65;1.85;;;31.20;99.90;;;;;;5020685;28;20615;-49
2022/08/11 16:27:36;;;;;;;2.28;2.08;;;31.10;99.90;;;;;;5022141;28;20262;-50
2022/08/11 16:30:04;;;;;;;2.53;1.92;;;31.10;99.90;;;;;;5022098;28;20233;-49
2022/08/11 16:32:34;;;;;;;1.92;1.65;;;31.10;99.90;;;;;;5019642;28;20630;-53
2022/08/11 16:40:43;;;;;;;4.32;2.00;;;31.10;99.90;;;;;;5017056;28;20438;-49
2022/08/11 16:48:53;;;;;;;2.25;1.90;;;31.10;99.90;;;;;;5018280;28;20228;-51
2022/08/11 16:51:21;;;;;;;3.45;2.05;;;31.10;99.90;;;;;;5018989;28;20633;-49
2022/08/11 16:53:49;;;;;;;4.82;1.83;;;31.10;99.90;;;;;;5018445;28;20237;-48
2022/08/11 16:56:37;;;;;;;3.78;2.15;;;31.20;99.90;;;;;;5020763;28;20335;-51
2022/08/11 16:59:13;;;;;;;6.30;1.92;;;31.00;99.90;;;;;;5020209;28;20205;-51
2022/08/11 17:02:02;;;;;;;3.47;2.03;;;30.80;99.90;;;;;;5019472;28;20204;-51
2022/08/11 17:13:55;;;;;;;2.17;1.98;;;30.70;99.90;;;;;;5020297;28;20698;-49
2022/08/11 17:16:29;;;;;;;5.35;2.45;;;30.70;99.90;;;;;;5017845;28;20288;-51
2022/08/11 17:19:07;;;;;;;2.35;1.65;;;30.70;99.90;;;;;;5015426;28;20249;-51
2022/08/11 17:24:35;;;;;;;2.25;1.88;;;30.90;99.90;;;;;;5018888;28;20608;-51
2022/08/11 17:27:06;;;;;;;7.53;2.05;;;30.70;99.90;;;;;;5019060;28;20300;-50
2022/08/11 17:29:52;;;;;;;5.78;2.20;;;30.60;99.90;;;;;;5018250;28;20208;-51
2022/08/11 17:35:29;;;;;;;4.15;1.95;;;30.60;99.90;;;;;;5019607;28;20558;-51
2022/08/11 17:38:05;;;;;;;3.30;2.45;;;30.60;99.90;;;;;;5033437;28;20227;-49
2022/08/11 17:40:37;;;;;;;6.13;2.42;;;30.60;99.90;;;;;;5018979;28;20289;-49
2022/08/11 17:48:37;;;;;;;3.80;2.50;;;30.60;99.90;;;;;;5015312;28;20204;-48
2022/08/11 17:59:51;;;;;;;2.65;1.73;;;30.20;99.90;;;;;;5019607;28;20223;-50
2022/08/11 18:05:20;;;;;;;6.35;2.22;;;30.30;99.90;;;;;;5016821;28;20351;-49
